CheckWX is a tool to help pilots better visualize weather data.  It is not intended as a substitute for an official pre-flight weather briefing.

12:31:35 UTC

FYWH METAR
Hosea Kutako International Airport
Windhoek, Namibia
Current

2 hours ago

FYWH 181100Z 07008KT 360V150 CAVOK ///// Q1022
Observed
Feb-18 @ 11:00 UTC
Wind
  • 070° at 8 KTS
Visibility
10,000+ meters
Flight Rules
VFR
Cloud Levels
  • Clear skies
Altimeter
30.18" Hg
Pressure
1021.92 hPa
Previous

4 hours ago

FYWH 180900Z 10009KT 050V140 CAVOK 29/M01 Q1024 NOSIG
Observed
Feb-18 @ 09:00 UTC
Wind
  • 100° at 9 KTS
Visibility
10,000+ meters
Flight Rules
VFR
Cloud Levels
  • Clear skies
Temperature
29°C / 84°F
Dewpoint
-1°C / 30°F
Humidity
14%
Altimeter
30.24" Hg
Pressure
1023.92 hPa
Previous

5 hours ago

FYWH 180800Z 10011KT 050V120 CAVOK 28/02 Q1024 NOSIG
Observed
Feb-18 @ 08:00 UTC
Wind
  • 100° at 11 KTS
Visibility
10,000+ meters
Flight Rules
VFR
Cloud Levels
  • Clear skies
Temperature
28°C / 82°F
Dewpoint
C / 36°F
Humidity
19%
Altimeter
30.24" Hg
Pressure
1023.92 hPa